createdAt,value
2023-03-06T00:02:16.763Z,1.33
2023-03-06T00:05:10.334Z,1.35
2023-03-06T00:08:02.396Z,1.34
2023-03-06T00:10:54.395Z,1.32
2023-03-06T00:13:46.510Z,1.32
2023-03-06T00:16:38.526Z,1.33
2023-03-06T00:19:30.530Z,1.31
2023-03-06T00:22:22.556Z,1.31
2023-03-06T00:25:17.922Z,1.32
2023-03-06T00:27:58.629Z,1.33
2023-03-06T00:30:50.964Z,1.34
2023-03-06T00:33:43.531Z,1.34
2023-03-06T00:36:35.509Z,1.33
2023-03-06T00:39:27.501Z,1.34
2023-03-06T00:42:20.536Z,1.33
2023-03-06T00:45:13.787Z,1.34
2023-03-06T00:47:48.501Z,1.35
2023-03-06T00:50:40.559Z,1.34
2023-03-06T00:53:32.584Z,1.35
2023-03-06T00:56:25.173Z,1.35
2023-03-06T00:59:17.279Z,1.33
2023-03-06T01:01:49.490Z,1.31
2023-03-06T01:04:42.078Z,1.29
2023-03-06T01:07:24.116Z,1.28
2023-03-06T01:10:16.208Z,1.27
2023-03-06T01:12:58.637Z,1.25
2023-03-06T01:15:50.729Z,1.25
2023-03-06T01:18:27.960Z,1.25
2023-03-06T01:21:19.968Z,1.25
2023-03-06T01:24:12.111Z,1.25
2023-03-06T01:27:04.280Z,1.25
2023-03-06T01:29:56.364Z,1.25
2023-03-06T01:32:49.176Z,1.25
2023-03-06T01:35:23.826Z,1.26
2023-03-06T01:38:16.671Z,1.27
2023-03-06T01:40:51.406Z,1.29
2023-03-06T01:43:44.405Z,1.30
2023-03-06T01:46:42.062Z,1.31
2023-03-06T01:49:21.059Z,1.31
2023-03-06T01:52:16.655Z,1.30
2023-03-06T01:55:12.233Z,1.29
2023-03-06T01:58:11.411Z,1.28
2023-03-06T02:01:03.472Z,1.28
2023-03-06T02:03:56.331Z,1.25
2023-03-06T02:06:40.678Z,1.24
2023-03-06T02:09:34.697Z,1.24
2023-03-06T02:12:27.424Z,1.26
2023-03-06T02:15:23.448Z,1.31
2023-03-06T02:18:11.443Z,1.33
2023-03-06T02:21:06.928Z,1.36
2023-03-06T02:24:09.756Z,1.40
2023-03-06T02:27:03.391Z,1.41
2023-03-06T02:29:56.113Z,1.42
2023-03-06T02:32:48.260Z,1.41
2023-03-06T02:35:41.766Z,1.41
2023-03-06T02:38:40.656Z,1.43
2023-03-06T02:41:32.921Z,1.43
2023-03-06T02:44:27.406Z,1.43
2023-03-06T02:47:19.532Z,1.42
2023-03-06T02:50:12.793Z,1.43
2023-03-06T02:53:05.086Z,1.46
2023-03-06T02:55:57.369Z,1.47
2023-03-06T02:58:49.545Z,1.48
2023-03-06T03:01:41.689Z,1.46
2023-03-06T03:04:33.823Z,1.46
2023-03-06T03:07:08.965Z,1.45
2023-03-06T03:10:01.126Z,1.46
2023-03-06T03:12:36.225Z,1.46
2023-03-06T03:15:28.280Z,1.47
2023-03-06T03:18:20.351Z,1.48
2023-03-06T03:20:55.447Z,1.48
2023-03-06T03:23:47.601Z,1.48
2023-03-06T03:26:39.635Z,1.50
2023-03-06T03:29:15.438Z,1.51
2023-03-06T03:32:08.392Z,1.50
2023-03-06T03:35:00.669Z,1.49
2023-03-06T03:37:54.681Z,1.45
2023-03-06T03:40:46.817Z,1.41
2023-03-06T03:43:39.049Z,1.37
2023-03-06T03:46:13.732Z,1.35
2023-03-06T03:49:05.888Z,1.30
2023-03-06T03:51:57.882Z,1.27
2023-03-06T03:54:49.855Z,1.23
2023-03-06T03:57:43.114Z,1.18
2023-03-06T04:00:35.151Z,1.15
2023-03-06T04:03:27.183Z,1.15
2023-03-06T04:06:19.425Z,1.15
2023-03-06T04:09:11.530Z,1.14
2023-03-06T04:12:03.714Z,1.09
2023-03-06T04:14:55.760Z,1.02
2023-03-06T04:17:47.801Z,0.93
2023-03-06T04:20:40.248Z,0.83
2023-03-06T04:23:32.644Z,0.77
2023-03-06T04:26:24.680Z,0.72
2023-03-06T04:29:17.072Z,0.69
2023-03-06T04:32:10.334Z,0.66
2023-03-06T04:35:02.368Z,0.63
2023-03-06T04:37:36.997Z,0.61
2023-03-06T04:40:31.277Z,0.62
2023-03-06T04:43:23.554Z,0.66
2023-03-06T04:46:15.608Z,0.70
2023-03-06T04:49:08.022Z,0.75
2023-03-06T04:52:00.145Z,0.79
2023-03-06T04:54:34.799Z,0.81
2023-03-06T04:57:26.821Z,0.83
2023-03-06T05:00:21.450Z,0.85
2023-03-06T05:03:04.697Z,0.87
2023-03-06T05:05:56.773Z,0.90
2023-03-06T05:08:49.133Z,0.90
2023-03-06T05:11:26.096Z,0.88
2023-03-06T05:14:18.074Z,0.89
2023-03-06T05:16:58.999Z,0.91
2023-03-06T05:19:51.080Z,0.93
2023-03-06T05:22:43.381Z,0.93
2023-03-06T05:25:35.486Z,0.96
2023-03-06T05:28:28.720Z,0.99
2023-03-06T05:31:20.804Z,1.00
2023-03-06T05:34:16.244Z,1.00
2023-03-06T05:37:08.439Z,1.02
2023-03-06T05:40:01.310Z,1.04
2023-03-06T05:42:53.363Z,1.03
2023-03-06T05:45:46.270Z,1.03
2023-03-06T05:48:38.571Z,1.04
2023-03-06T05:51:30.797Z,1.05
2023-03-06T05:54:13.240Z,1.08
2023-03-06T05:57:06.144Z,1.12
2023-03-06T05:59:58.320Z,1.18
2023-03-06T06:02:50.521Z,1.26
2023-03-06T06:05:43.135Z,1.29
2023-03-06T06:08:37.113Z,1.34
2023-03-06T06:11:13.524Z,1.36
2023-03-06T06:14:05.546Z,1.35
2023-03-06T06:16:57.728Z,1.34
2023-03-06T06:19:49.713Z,1.37
2023-03-06T06:22:41.710Z,1.42
2023-03-06T06:25:34.100Z,1.47
2023-03-06T06:28:26.135Z,1.49
2023-03-06T06:31:18.154Z,1.53
2023-03-06T06:34:11.581Z,1.60
2023-03-06T06:36:47.120Z,1.70
2023-03-06T06:39:39.265Z,1.85
2023-03-06T06:42:37.755Z,2.00
2023-03-06T06:45:31.781Z,2.13
2023-03-06T06:48:23.846Z,2.26
2023-03-06T06:51:16.091Z,2.39
2023-03-06T06:53:59.474Z,2.53
2023-03-06T06:56:31.445Z,2.66
2023-03-06T06:59:24.113Z,2.74
2023-03-06T07:02:01.274Z,2.80
2023-03-06T07:04:52.322Z,2.86
2023-03-06T07:07:50.936Z,2.95
2023-03-06T07:10:43.042Z,3.08
2023-03-06T07:13:35.440Z,3.23
2023-03-06T07:16:17.302Z,3.44
2023-03-06T07:19:09.857Z,3.71
2023-03-06T07:21:52.233Z,3.92
2023-03-06T07:24:44.356Z,4.11
2023-03-06T07:27:36.461Z,4.30
2023-03-06T07:30:28.512Z,4.39
2023-03-06T07:33:20.612Z,4.50
2023-03-06T07:36:14.021Z,4.57
2023-03-06T07:39:06.490Z,4.71
2023-03-06T07:41:48.817Z,4.88
2023-03-06T07:44:40.850Z,4.91
2023-03-06T07:47:18.166Z,4.93
2023-03-06T07:50:03.047Z,4.95
2023-03-06T07:52:46.210Z,4.97
2023-03-06T07:55:34.362Z,4.98
2023-03-06T07:58:15.100Z,5.01
2023-03-06T08:01:09.451Z,5.11
2023-03-06T08:03:44.945Z,5.25
2023-03-06T08:06:21.608Z,5.47
2023-03-06T08:09:04.836Z,5.97
2023-03-06T08:11:42.302Z,6.49
2023-03-06T08:14:37.075Z,6.85
2023-03-06T08:17:11.604Z,7.07
2023-03-06T08:20:03.573Z,7.49
2023-03-06T08:22:55.528Z,8.02
2023-03-06T08:25:47.466Z,8.60
2023-03-06T08:28:39.536Z,9.29
2023-03-06T08:31:33.620Z,10.45
2023-03-06T08:34:18.951Z,11.59
2023-03-06T08:37:10.925Z,12.67
2023-03-06T08:40:04.587Z,13.39
2023-03-06T08:42:56.673Z,13.79
2023-03-06T08:45:54.311Z,14.02
2023-03-06T08:48:47.700Z,14.49
2023-03-06T08:51:23.056Z,15.04
2023-03-06T08:53:57.993Z,15.82
2023-03-06T08:56:34.737Z,16.68
2023-03-06T08:59:10.476Z,17.40
2023-03-06T09:02:03.972Z,18.16
2023-03-06T09:04:56.118Z,19.18
2023-03-06T09:07:43.630Z,20.11
2023-03-06T09:10:36.102Z,20.65
2023-03-06T09:13:19.329Z,21.24
2023-03-06T09:16:01.417Z,21.68
2023-03-06T09:18:54.295Z,22.03
2023-03-06T09:21:31.705Z,22.56
2023-03-06T09:24:03.598Z,22.57
2023-03-06T09:26:55.651Z,22.55
2023-03-06T09:29:47.646Z,23.01
2023-03-06T09:32:39.745Z,23.71
2023-03-06T09:35:32.006Z,24.39
2023-03-06T09:38:26.363Z,25.42
2023-03-06T09:41:26.312Z,26.45
2023-03-06T09:44:20.954Z,27.63
2023-03-06T09:47:18.375Z,28.29
2023-03-06T09:50:19.829Z,29.33
2023-03-06T09:53:04.404Z,29.07
2023-03-06T09:56:01.980Z,28.37
2023-03-06T09:58:42.927Z,28.82
2023-03-06T10:01:40.928Z,29.61
2023-03-06T10:04:26.477Z,29.99
2023-03-06T10:07:23.696Z,30.72
2023-03-06T10:10:02.173Z,30.84
2023-03-06T10:12:47.257Z,30.97
2023-03-06T10:15:42.508Z,30.89
2023-03-06T10:18:31.657Z,31.04
2023-03-06T10:21:40.176Z,31.30
2023-03-06T10:24:43.351Z,31.65
2023-03-06T10:27:37.947Z,31.46
2023-03-06T10:30:34.817Z,31.02
2023-03-06T10:33:41.333Z,30.34
2023-03-06T10:36:33.270Z,30.55
2023-03-06T10:39:25.433Z,30.66
2023-03-06T10:42:17.751Z,31.01
2023-03-06T10:45:10.596Z,31.36
2023-03-06T10:48:18.544Z,30.90
2023-03-06T10:51:20.380Z,29.47
2023-03-06T10:53:59.924Z,27.66
2023-03-06T10:56:36.102Z,26.18
2023-03-06T10:59:14.802Z,25.28
2023-03-06T11:01:58.799Z,24.61
2023-03-06T11:04:55.282Z,23.55
2023-03-06T11:07:32.231Z,22.89
2023-03-06T11:10:24.488Z,22.73
2023-03-06T11:13:24.800Z,22.23
2023-03-06T11:16:06.702Z,21.87
2023-03-06T11:18:43.169Z,21.24
2023-03-06T11:21:37.328Z,20.73
2023-03-06T11:24:16.767Z,20.50
2023-03-06T11:27:24.846Z,20.56
2023-03-06T11:30:23.371Z,20.33
2023-03-06T11:33:01.864Z,19.77
2023-03-06T11:35:51.567Z,19.21
2023-03-06T11:38:35.229Z,18.49
2023-03-06T11:41:19.248Z,17.78
2023-03-06T11:44:23.304Z,17.28
2023-03-06T11:47:15.914Z,16.61
2023-03-06T11:50:22.375Z,16.00
2023-03-06T11:53:16.621Z,15.44
2023-03-06T11:55:58.900Z,14.99
2023-03-06T11:59:23.395Z,14.44
2023-03-06T12:02:26.428Z,13.99
2023-03-06T12:05:24.299Z,13.58
2023-03-06T12:08:44.286Z,13.12
2023-03-06T12:11:33.253Z,12.60
2023-03-06T12:14:40.182Z,12.33
2023-03-06T12:17:22.694Z,12.11
2023-03-06T12:20:21.026Z,11.77
2023-03-06T12:23:26.713Z,11.58
2023-03-06T12:26:40.342Z,11.48
2023-03-06T12:29:59.810Z,11.49
2023-03-06T12:33:02.106Z,11.51
2023-03-06T12:36:13.798Z,11.49
2023-03-06T12:39:15.864Z,11.36
2023-03-06T12:42:11.297Z,11.16
2023-03-06T12:45:18.532Z,10.88
2023-03-06T12:48:17.282Z,10.61
2023-03-06T12:50:59.018Z,10.42
2023-03-06T12:53:52.833Z,10.16
2023-03-06T12:56:46.172Z,10.08
2023-03-06T12:59:43.983Z,10.08
2023-03-06T13:03:05.859Z,10.20
2023-03-06T13:06:13.927Z,10.41
2023-03-06T13:09:17.831Z,10.54
2023-03-06T13:12:25.833Z,10.44
2023-03-06T13:16:06.239Z,10.28
2023-03-06T13:19:01.982Z,10.11
2023-03-06T13:22:14.092Z,10.07
2023-03-06T13:25:39.024Z,10.08
2023-03-06T13:28:40.235Z,10.11
2023-03-06T13:32:05.741Z,10.04
2023-03-06T13:34:58.137Z,10.06
2023-03-06T13:37:53.715Z,9.96
2023-03-06T13:40:39.024Z,9.86
2023-03-06T13:43:32.012Z,9.67
2023-03-06T13:46:28.736Z,9.54
2023-03-06T13:49:21.149Z,9.36
2023-03-06T13:52:24.058Z,9.18
2023-03-06T13:55:17.954Z,9.00
2023-03-06T13:58:30.755Z,8.82
2023-03-06T14:01:28.957Z,8.71
2023-03-06T14:04:34.632Z,8.67
2023-03-06T14:07:25.114Z,8.57
2023-03-06T14:10:24.053Z,8.46
2023-03-06T14:13:07.884Z,8.40
2023-03-06T14:15:59.813Z,8.31
2023-03-06T14:18:47.565Z,8.27
2023-03-06T14:21:31.854Z,8.23
2023-03-06T14:24:22.870Z,8.09
2023-03-06T14:26:57.602Z,8.00
2023-03-06T14:29:49.861Z,7.90
2023-03-06T14:32:42.959Z,7.73
2023-03-06T14:35:26.724Z,7.61
2023-03-06T14:38:17.288Z,7.51
2023-03-06T14:41:11.384Z,7.42
2023-03-06T14:44:17.999Z,7.34
2023-03-06T14:47:28.581Z,7.29
2023-03-06T14:50:29.537Z,7.15
2023-03-06T14:53:26.029Z,6.81
2023-03-06T14:56:21.197Z,6.48
2023-03-06T14:59:17.455Z,6.19
2023-03-06T15:02:12.684Z,5.98
2023-03-06T15:04:50.038Z,5.75
2023-03-06T15:07:43.055Z,5.57
2023-03-06T15:10:37.586Z,5.39
2023-03-06T15:13:31.779Z,5.33
2023-03-06T15:16:30.393Z,5.25
2023-03-06T15:19:06.281Z,5.20
2023-03-06T15:21:41.391Z,5.18
2023-03-06T15:24:37.948Z,5.17
2023-03-06T15:27:32.270Z,5.21
2023-03-06T15:30:32.990Z,5.25
2023-03-06T15:33:27.834Z,5.30
2023-03-06T15:36:17.808Z,5.34
2023-03-06T15:39:33.776Z,5.37
2023-03-06T15:42:28.024Z,5.31
2023-03-06T15:45:22.486Z,5.27
2023-03-06T15:48:19.196Z,5.25
2023-03-06T15:51:11.288Z,5.23
2023-03-06T15:54:11.857Z,5.21
2023-03-06T15:56:51.704Z,5.20
2023-03-06T15:59:36.960Z,5.17
2023-03-06T16:02:29.079Z,5.15
2023-03-06T16:05:22.246Z,5.11
2023-03-06T16:08:14.926Z,5.07
2023-03-06T16:11:07.319Z,5.01
2023-03-06T16:13:45.331Z,4.97
2023-03-06T16:16:39.574Z,4.93
2023-03-06T16:19:31.700Z,4.90
2023-03-06T16:22:23.711Z,4.88
2023-03-06T16:25:15.561Z,4.82
2023-03-06T16:28:12.322Z,4.73
2023-03-06T16:31:01.658Z,4.64
2023-03-06T16:33:36.399Z,4.59
2023-03-06T16:36:30.134Z,4.56
2023-03-06T16:39:24.612Z,4.54
2023-03-06T16:41:56.463Z,4.54
2023-03-06T16:44:48.611Z,4.56
2023-03-06T16:47:29.922Z,4.54
2023-03-06T16:50:33.028Z,4.52
2023-03-06T16:53:25.002Z,4.51
2023-03-06T16:56:15.700Z,4.49
2023-03-06T16:59:07.865Z,4.47
2023-03-06T17:01:56.090Z,4.46
2023-03-06T17:04:48.105Z,4.41
2023-03-06T17:07:22.804Z,4.37
2023-03-06T17:10:18.756Z,4.34
2023-03-06T17:13:12.404Z,4.31
2023-03-06T17:16:04.642Z,4.31
2023-03-06T17:18:58.191Z,4.29
2023-03-06T17:21:50.699Z,4.22
2023-03-06T17:24:42.813Z,4.16
2023-03-06T17:27:25.410Z,4.12
2023-03-06T17:30:18.049Z,4.07
2023-03-06T17:32:52.214Z,4.05
2023-03-06T17:35:44.174Z,4.01
2023-03-06T17:38:19.704Z,3.98
2023-03-06T17:41:13.312Z,3.97
2023-03-06T17:44:05.516Z,3.93
2023-03-06T17:46:42.542Z,3.88
2023-03-06T17:49:34.628Z,3.86
2023-03-06T17:52:15.403Z,3.82
2023-03-06T17:55:09.023Z,3.79
2023-03-06T17:58:01.132Z,3.77
2023-03-06T18:00:53.488Z,3.77
2023-03-06T18:03:28.180Z,3.76
2023-03-06T18:06:22.090Z,3.78
2023-03-06T18:09:10.374Z,3.79
2023-03-06T18:11:51.114Z,3.80
2023-03-06T18:14:43.195Z,3.80
2023-03-06T18:17:24.378Z,3.82
2023-03-06T18:20:17.631Z,3.83
2023-03-06T18:23:09.828Z,3.85
2023-03-06T18:25:52.661Z,3.87
2023-03-06T18:28:47.330Z,3.84
2023-03-06T18:31:41.704Z,3.81
2023-03-06T18:34:33.700Z,3.80
2023-03-06T18:37:26.141Z,3.78
2023-03-06T18:40:01.138Z,3.79
2023-03-06T18:42:35.921Z,3.80
2023-03-06T18:45:28.028Z,3.77
2023-03-06T18:48:16.404Z,3.79
2023-03-06T18:51:10.723Z,3.80
2023-03-06T18:54:04.473Z,3.82
2023-03-06T18:56:47.357Z,3.83
2023-03-06T18:59:28.773Z,3.83
2023-03-06T19:02:21.123Z,3.82
2023-03-06T19:04:56.248Z,3.79
2023-03-06T19:07:48.784Z,3.76
2023-03-06T19:10:42.276Z,3.74
2023-03-06T19:13:34.398Z,3.74
2023-03-06T19:16:28.852Z,3.75
2023-03-06T19:19:20.891Z,3.75
2023-03-06T19:21:58.114Z,3.77
2023-03-06T19:24:46.876Z,3.80
2023-03-06T19:27:27.752Z,3.83
2023-03-06T19:30:25.374Z,3.85
2023-03-06T19:33:17.784Z,3.80
2023-03-06T19:36:12.264Z,3.73
2023-03-06T19:39:07.414Z,3.67
2023-03-06T19:41:59.484Z,3.62
2023-03-06T19:44:51.484Z,3.59
2023-03-06T19:47:43.434Z,3.58
2023-03-06T19:50:36.815Z,3.56
2023-03-06T19:53:14.056Z,3.56
2023-03-06T19:56:08.601Z,3.56
2023-03-06T19:59:00.613Z,3.57
2023-03-06T20:01:41.743Z,3.59
2023-03-06T20:04:17.041Z,3.60
2023-03-06T20:07:09.060Z,3.63
2023-03-06T20:09:50.128Z,3.63
2023-03-06T20:12:24.684Z,3.64
2023-03-06T20:14:59.210Z,3.64
2023-03-06T20:17:41.689Z,3.63
2023-03-06T20:20:16.547Z,3.61
2023-03-06T20:23:09.133Z,3.59
2023-03-06T20:26:04.462Z,3.58
2023-03-06T20:28:56.671Z,3.58
2023-03-06T20:31:49.062Z,3.57
2023-03-06T20:34:32.763Z,3.54
2023-03-06T20:37:24.741Z,3.48
2023-03-06T20:40:01.934Z,3.44
2023-03-06T20:42:54.465Z,3.42
2023-03-06T20:45:58.342Z,3.40
2023-03-06T20:48:33.375Z,3.39
2023-03-06T20:51:27.904Z,3.38
2023-03-06T20:54:20.120Z,3.36
2023-03-06T20:57:12.120Z,3.32
2023-03-06T21:00:04.591Z,3.28
2023-03-06T21:02:56.639Z,3.24
2023-03-06T21:05:50.068Z,3.21
2023-03-06T21:08:42.210Z,3.18
2023-03-06T21:11:34.793Z,3.15
2023-03-06T21:14:26.758Z,3.12
2023-03-06T21:17:18.831Z,3.09
2023-03-06T21:20:13.001Z,3.06
2023-03-06T21:23:05.003Z,3.04
2023-03-06T21:25:57.145Z,3.02
2023-03-06T21:28:49.361Z,3.00
2023-03-06T21:31:31.536Z,2.97
2023-03-06T21:34:19.887Z,2.92
2023-03-06T21:37:11.925Z,2.89
2023-03-06T21:40:06.614Z,2.86
2023-03-06T21:42:49.039Z,2.85
2023-03-06T21:45:33.200Z,2.87
2023-03-06T21:48:25.249Z,2.92
2023-03-06T21:51:19.875Z,2.99
2023-03-06T21:54:13.021Z,3.05
2023-03-06T21:57:05.436Z,3.10
2023-03-06T21:59:57.480Z,3.17
2023-03-06T22:02:49.537Z,3.22
2023-03-06T22:05:41.803Z,3.27
2023-03-06T22:08:33.886Z,3.29
2023-03-06T22:11:16.570Z,3.32
2023-03-06T22:13:53.177Z,3.32
2023-03-06T22:16:56.708Z,3.30
2023-03-06T22:19:35.711Z,3.25
2023-03-06T22:22:28.180Z,3.18
2023-03-06T22:25:20.235Z,3.12
2023-03-06T22:28:13.060Z,3.07
2023-03-06T22:31:10.750Z,3.03
2023-03-06T22:34:03.339Z,2.99
2023-03-06T22:36:55.348Z,2.97
2023-03-06T22:39:47.427Z,2.96
2023-03-06T22:42:39.441Z,2.95
2023-03-06T22:45:34.735Z,2.94
2023-03-06T22:48:26.788Z,2.95
2023-03-06T22:51:05.838Z,2.95
2023-03-06T22:53:58.163Z,2.97
2023-03-06T22:56:30.000Z,2.98
2023-03-06T22:59:02.175Z,2.98
2023-03-06T23:01:39.379Z,2.99
2023-03-06T23:04:31.501Z,2.99
2023-03-06T23:07:23.761Z,2.97
2023-03-06T23:10:15.812Z,2.94
2023-03-06T23:13:07.962Z,2.94
2023-03-06T23:16:02.225Z,2.94
2023-03-06T23:18:54.956Z,2.93
2023-03-06T23:21:47.007Z,2.91
2023-03-06T23:24:39.274Z,2.90
2023-03-06T23:27:31.405Z,2.89
2023-03-06T23:30:23.369Z,2.89
2023-03-06T23:33:15.311Z,2.89
2023-03-06T23:36:10.174Z,2.90
2023-03-06T23:39:02.285Z,2.92
2023-03-06T23:41:54.218Z,2.93
2023-03-06T23:44:46.307Z,2.94
2023-03-06T23:47:38.357Z,2.95
2023-03-06T23:50:30.428Z,2.94
2023-03-06T23:53:23.321Z,2.97
2023-03-06T23:56:16.022Z,3.00
2023-03-06T23:59:08.134Z,3.03
